Latest Coastal Weather Observations for Strahan

IDT60701

Issued at 1:42 am EST Saturday 4 July 2015 (issued every 10 minutes, with the page automatically refreshed every 10 minutes)

About coastal observations | Map of coastal stations | Coastal observations for TAS | Marine services | Other Formats
Station Details ID: 097072 Name: STRAHAN AERODROME Lat: -42.16 Lon: 145.29 Height: 21.0 m
Data from the previous 72 hours. | See also: Recent months at Strahan
Date/Time
EST
Temp

°C
Wind Pressure Rain
since 9am
mm
Weather Cloud Vis
km
Sea
Height
m
Swell
Dir
 
Speed
knots
Gust
knots
hPa Trend Height
m
Period
s
Dir
04/01:40am 11.0 NW 18 25 1014.1 - 4.6 - Partly cloudy 4 - - - -
04/01:38am 11.0 NW 17 24 1014.0 - 4.4 - Partly cloudy 5 - - - -
04/01:36am 11.0 NW 17 25 1014.0 - 4.4 - Partly cloudy 6 - - - -
04/01:33am 11.0 NW 19 25 1014.1 - 4.4 - Partly cloudy 6 - - - -
04/01:30am 10.9 NW 18 25 1014.1 - 4.4 - Partly cloudy 6 - - - -
04/01:18am 10.9 NW 19 27 1014.3 - 4.4 - Partly cloudy 5 - - - -
04/01:13am 10.8 NW 20 27 1014.3 - 4.4 - Partly cloudy 8 - - - -
04/01:00am 10.8 NW 19 25 1014.5 - 4.0 - Partly cloudy 5 - - - -
04/12:30am 10.4 NNW 15 22 1015.0 - 3.6 - Partly cloudy 4 - - - -
04/12:09am 10.2 NNW 17 26 1015.4 - 3.4 - Partly cloudy 5 - - - -
04/12:06am 10.2 NNW 16 26 1015.4 - 3.2 - Partly cloudy 7 - - - -
04/12:01am 10.1 NNW 16 21 1015.6 - 3.2 - Partly cloudy 10 - - - -
04/12:00am 10.1 NNW 16 21 1015.6 - 3.2 Recent precip. Cloudy 10 - - - -
 
Date/Time
EST
Temp

°C
Wind Pressure Rain
since 9am
mm
Weather Cloud Vis
km
Sea
Height
m
Swell
Dir
 
Speed
knots
Gust
knots
hPa Trend Height
m
Period
s
Dir
03/11:30pm 10.2 NW 15 21 1016.2 - 3.2 - Partly cloudy 2 - - - -
03/11:14pm 9.9 NW 17 23 1016.4 - 2.4 - Partly cloudy 4 - - - -
03/11:00pm 10.0 NNW 16 25 1016.4 - 2.4 - Partly cloudy 5 - - - -
03/10:59pm 10.0 NNW 16 25 1016.4 - 2.4 - Partly cloudy 5 - - - -
03/10:58pm 10.0 NNW 15 25 1016.4 - 2.4 - Partly cloudy 6 - - - -
03/10:30pm 9.6 NW 14 18 1016.9 - 2.4 - Partly cloudy 10 - - - -
03/10:27pm 9.5 NW 14 18 1016.9 - 2.4 - Partly cloudy 10 - - - -
03/10:09pm 9.7 NW 15 23 1017.1 - 2.4 - Partly cloudy 5 - - - -
03/10:00pm 10.0 NW 16 22 1017.3 - 2.4 - Partly cloudy 10 - - - -
03/09:50pm 9.6 NW 14 20 1017.4 - 2.4 - Partly cloudy 10 - - - -
03/09:38pm 9.5 NW 19 28 1017.6 - 2.4 - Partly cloudy 5 - - - -
03/09:30pm 10.0 NW 18 24 1017.6 - 2.4 - Partly cloudy 10 - - - -
03/09:00pm 10.1 NW 18 26 1017.7 - 2.4 Recent precip. Cloudy 10 - - - -
03/08:30pm 9.3 NW 18 26 1018.2 - 2.2 - Partly cloudy 10 - - - -
03/08:00pm 9.1 NW 15 24 1018.3 - 2.2 - Partly cloudy 10 - - - -
03/07:30pm 8.8 NW 19 26 1018.6 - 2.2 - Partly cloudy 10 - - - -
03/07:00pm 9.0 NW 17 22 1018.9 - 2.2 - Partly cloudy 10 - - - -
03/06:30pm 8.8 NNW 17 23 1019.0 - 2.2 - Partly cloudy 10 - - - -
03/06:00pm 8.0 NNW 13 19 1019.1 - 2.2 Recent precip. Mostly cloudy 10 - - - -
03/05:41pm 8.1 NW 12 18 1019.5 - 2.0 - Partly cloudy 10 - - - -
03/05:30pm 8.0 NW 17 24 1019.7 - 2.0 - Partly cloudy 5 - - - -
03/05:23pm 8.4 NW 16 24 1019.8 - 2.0 - Partly cloudy 5 - - - -
03/05:00pm 8.0 NNW 17 26 1019.9 - 2.0 - Partly cloudy 6 - - - -
03/04:54pm 8.7 NNW 15 26 1019.9 - 2.0 - Partly cloudy 10 - - - -
03/04:30pm 8.0 NW 13 20 1020.0 - 2.0 - Partly cloudy 10 - - - -
03/04:12pm 8.4 NNW 15 26 1020.2 - 1.6 - Partly cloudy 9 - - - -
03/04:00pm 8.5 NNW 16 22 1020.2 - 1.6 - Partly cloudy 10 - - - -
03/03:46pm 8.9 NW 16 26 1020.2 - 1.6 - Partly cloudy 10 - - - -
03/03:30pm 9.3 NW 16 22 1020.4 - 1.6 - Partly cloudy 10 - - - -
03/03:00pm 9.9 NW 17 24 1020.6 - 1.6 - Cloudy 10 - - - -
03/02:50pm 9.9 NW 17 27 1020.7 - 1.6 - Partly cloudy 10 - - - -
03/02:30pm 8.8 NW 18 24 1020.8 - 1.6 - Partly cloudy 10 - - - -
03/02:23pm 8.8 NW 16 24 1020.9 - 1.6 - Partly cloudy 10 - - - -
03/02:05pm 8.5 NW 17 23 1021.2 - 1.6 - Partly cloudy 5 - - - -
03/02:00pm 9.1 NW 15 22 1021.2 - 1.6 - Partly cloudy 10 - - - -
03/01:30pm 9.6 NNW 14 19 1021.6 - 1.6 - Partly cloudy 10 - - - -
03/01:00pm 9.3 WNW 16 24 1022.1 - 1.6 - Partly cloudy 10 - - - -
03/12:30pm 8.9 NW 15 20 1022.5 - 1.6 - Partly cloudy 10 - - - -
03/12:00pm 8.9 NW 13 18 1023.0 - 1.6 Recent precip. Cloudy 10 - - - -
03/11:47am 9.1 NNW 10 15 1023.1 - 1.6 - Partly cloudy 10 - - - -
03/11:30am 9.3 NNW 9 11 1023.5 - 1.6 - Partly cloudy 5 - - - -
03/11:27am 9.5 NNW 9 13 1023.5 - 1.4 - Partly cloudy 10 - - - -
03/11:23am 8.8 NNW 9 13 1023.6 - 1.4 - Partly cloudy 10 - - - -
03/11:03am 7.8 NNW 9 12 1024.1 - 1.4 - Partly cloudy 5 - - - -
03/11:00am 7.9 N 9 12 1024.2 - 1.4 - Partly cloudy 8 - - - -
03/10:30am 7.5 N 8 11 1024.4 - 1.0 - Partly cloudy 3 - - - -
03/10:23am 7.4 N 8 11 1024.6 - 1.0 - Partly cloudy 3 - - - -
03/10:00am 7.1 N 7 11 1024.5 - 0.2 - Partly cloudy 5 - - - -
03/09:51am 6.6 N 7 11 1024.6 - 0.0 - Partly cloudy 5 - - - -
03/09:30am 5.9 NNE 8 11 1024.4 - 0.0 - Partly cloudy 10 - - - -
03/09:00am 6.0 NNE 6 8 1024.5 - 2.8 Recent precip. Mostly cloudy 10 - - - -
03/08:30am 4.8 NNE 7 9 1024.5 - 2.8 - Partly cloudy 10 - - - -
03/08:26am 4.8 NNE 7 9 1024.5 - 2.8 - Partly cloudy 10 - - - -
03/08:12am 5.0 N 7 9 1024.5 - 2.8 - Partly cloudy 5 - - - -
03/08:00am 4.8 NNE 7 11 1024.5 - 2.6 - Partly cloudy 10 - - - -
03/07:39am 5.1 NNE 7 10 1024.6 - 2.6 - Partly cloudy 10 - - - -
03/07:30am 5.1 NNE 6 8 1024.6 - 2.6 - Partly cloudy 6 - - - -
03/07:06am 5.0 N 6 8 1024.6 - 2.6 - Partly cloudy 5 - - - -
03/07:00am 5.0 N 6 8 1024.5 - 2.6 - Partly cloudy 10 - - - -
03/06:30am 4.7 NNE 8 10 1024.0 - 2.6 - Cloudy 10 - - - -
03/06:00am 4.7 NNE 6 9 1024.1 - 2.6 - Partly cloudy 10 - - - -
03/05:30am 4.9 NNE 6 9 1024.0 - 2.6 - Cloudy 10 - - - -
03/05:00am 4.7 NNE 7 9 1024.3 - 2.6 - Cloudy 10 - - - -
03/04:30am 4.5 NNE 7 9 1024.3 - 2.6 - Cloudy 10 - - - -
03/04:00am 4.4 NNE 5 6 1024.7 - 2.6 - Partly cloudy 10 - - - -
03/03:30am 4.2 NE 4 6 1025.1 - 2.6 - Partly cloudy 10 - - - -
03/03:00am 4.2 NNE 5 7 1025.3 - 2.6 - Mostly cloudy 10 - - - -
03/02:30am 4.4 NNE 5 6 1025.4 - 2.6 - Partly cloudy 10 - - - -
03/02:00am 4.3 NE 4 6 1025.5 - 2.6 - Partly cloudy 10 - - - -
03/01:36am 4.8 NE 5 6 1025.5 - 2.6 - Partly cloudy 8 - - - -
03/01:30am 4.8 NNE 5 6 1025.6 - 2.4 - Partly cloudy 8 - - - -
03/01:17am 4.6 N 6 8 1025.6 - 2.4 - Partly cloudy 5 - - - -
03/01:00am 4.5 NE 5 6 1025.5 - 1.8 - Partly cloudy 10 - - - -
03/12:30am 4.8 NNE 5 6 1025.9 - 1.8 - Partly cloudy 10 - - - -
03/12:27am 4.8 NNE 5 7 1025.9 - 1.8 - Partly cloudy 10 - - - -
03/12:06am 4.7 NNE 5 8 1026.0 - 1.6 - Partly cloudy 5 - - - -
03/12:00am 4.6 N 5 7 1026.0 - 1.2 - Cloudy 10 - - - -
 
Date/Time
EST
Temp

°C
Wind Pressure Rain
since 9am
mm
Weather Cloud Vis
km
Sea
Height
m
Swell
Dir
 
Speed
knots
Gust
knots
hPa Trend Height
m
Period
s
Dir
02/11:30pm 4.5 NE 4 6 1026.0 - 1.2 - Partly cloudy 10 - - - -
02/11:00pm 5.0 SE 5 12 1026.0 - 1.2 - Partly cloudy 10 - - - -
02/10:30pm 5.3 SE 3 3 1025.7 - 1.2 - Partly cloudy 10 - - - -
02/10:00pm 5.5 SSE 2 8 1025.8 - 1.2 - Partly cloudy 10 - - - -
02/09:30pm 5.9 SE 3 6 1025.6 - 1.2 - Partly cloudy 10 - - - -
02/09:00pm 6.2 S 7 10 1025.4 - 1.0 - Cloudy 10 - - - -
02/08:30pm 5.6 S 6 9 1024.9 - 1.0 - Partly cloudy 10 - - - -
02/08:00pm 6.1 SSW 9 14 1024.8 - 1.0 - Partly cloudy 10 - - - -
02/07:30pm 6.1 SSW 11 17 1024.2 - 1.0 - Partly cloudy 10 - - - -
02/07:00pm 5.9 SW 7 9 1023.7 - 1.0 - Partly cloudy 10 - - - -
02/06:30pm 6.3 SSW 12 21 1023.5 - 0.8 - Partly cloudy 10 - - - -
02/06:00pm 6.1 SSW 10 14 1022.9 - 0.8 Rain Mostly cloudy 10 - - - -
02/05:30pm 6.1 S 6 12 1022.6 - 0.6 - Partly cloudy 10 - - - -
02/05:00pm 6.5 SSW 13 19 1022.1 - 0.6 - Partly cloudy 10 - - - -
02/04:30pm 6.2 SW 11 18 1021.9 - 0.6 - Partly cloudy 10 - - - -
02/04:00pm 7.0 SW 11 16 1021.6 - 0.6 - Partly cloudy 10 - - - -
02/03:34pm 7.4 SW 12 28 1021.4 - 0.6 - Partly cloudy 10 - - - -
02/03:30pm 7.4 SW 10 15 1021.2 - 0.6 - Partly cloudy 10 - - - -
02/03:00pm 8.4 SW 18 28 1021.0 - 0.4 - Partly cloudy 10 - - - -
02/02:36pm 7.6 SW 15 25 1020.6 - 0.4 - Partly cloudy 10 - - - -
02/02:30pm 7.3 SW 12 17 1020.5 - 0.4 - Partly cloudy 10 - - - -
02/02:18pm 7.1 SW 18 28 1020.4 - 0.4 - Partly cloudy 10 - - - -
02/02:09pm 6.9 WSW 14 28 1020.4 - 0.4 - Partly cloudy 8 - - - -
02/02:00pm 7.0 WSW 10 13 1020.2 - 0.4 - Partly cloudy 10 - - - -
02/01:50pm 7.0 SW 18 28 1020.2 - 0.4 - Partly cloudy 10 - - - -
02/01:30pm 8.6 SW 20 27 1019.8 - 0.4 - Partly cloudy 10 - - - -
02/01:00pm 9.4 SW 19 25 1019.3 - 0.4 - Partly cloudy 10 - - - -
02/12:30pm 8.5 SW 15 21 1018.9 - 0.4 - Partly cloudy 10 - - - -
02/12:14pm 9.0 SW 16 27 1019.0 - 0.4 - Partly cloudy 10 - - - -
02/12:00pm 8.2 SW 15 21 1018.7 - 0.4 Recent precip. Cloudy 10 - - - -
02/11:36am 7.6 SSW 13 29 1018.6 - 0.4 - Partly cloudy 10 - - - -
02/11:30am 8.0 SSW 9 12 1018.4 - 0.4 - Partly cloudy 10 - - - -
02/11:00am 7.0 SSW 15 29 1018.5 - 0.2 - Partly cloudy 10 - - - -
02/10:30am 7.4 S 15 21 1017.6 - 0.0 - Partly cloudy 10 - - - -
02/10:00am 8.9 SW 18 31 1016.9 - 0.0 - Partly cloudy 10 - - - -
02/09:58am 9.1 SW 17 28 1016.8 - 0.0 - Partly cloudy 10 - - - -
02/09:30am 7.1 SSW 11 15 1016.3 - 0.0 - Partly cloudy 10 - - - -
02/09:00am 8.3 SW 15 19 1015.6 - 9.2 - Partly cloudy 10 - - - -
02/08:30am 7.6 SW 15 19 1014.7 - 9.2 - Partly cloudy 10 - - - -
02/08:00am 7.7 SW 14 22 1013.8 - 9.2 - Partly cloudy 10 - - - -
02/07:30am 7.7 WSW 14 20 1013.1 - 9.2 - Partly cloudy 10 - - - -
02/07:00am 7.1 SW 10 15 1012.5 - 9.2 - Partly cloudy 10 - - - -
02/06:30am 7.3 WSW 9 14 1012.0 - 9.2 - Partly cloudy 10 - - - -
02/06:00am 6.9 WSW 13 21 1011.6 - 9.2 Recent precip. Mostly cloudy 10 - - - -
02/05:38am 7.6 WSW 15 28 1011.4 - 9.2 - Partly cloudy 10 - - - -
02/05:30am 7.8 WSW 14 22 1011.3 - 9.2 - Partly cloudy 10 - - - -
02/05:12am 7.6 WSW 15 24 1011.0 - 9.2 - Partly cloudy 10 - - - -
02/05:00am 7.2 WSW 11 14 1011.1 - 9.0 - Partly cloudy 10 - - - -
02/04:36am 7.9 WSW 15 26 1010.7 - 9.0 - Partly cloudy 10 - - - -
02/04:30am 7.9 WSW 15 19 1010.7 - 9.0 - Partly cloudy 10 - - - -
02/04:00am 7.5 WSW 14 21 1010.7 - 9.0 - Partly cloudy 10 - - - -
02/03:30am 7.8 WSW 16 22 1010.7 - 9.0 - Partly cloudy 10 - - - -
02/03:00am 7.2 W 17 22 1010.8 - 9.0 Recent precip. Mostly cloudy 10 - - - -
02/02:37am 7.9 WSW 17 27 1010.6 - 8.8 - Partly cloudy 10 - - - -
02/02:30am 7.9 W 17 22 1010.7 - 8.8 - Partly cloudy 10 - - - -
02/02:04am 7.1 WSW 17 27 1010.8 - 8.6 - Partly cloudy 10 - - - -
02/02:00am 7.1 WSW 19 27 1010.8 - 8.6 - Partly cloudy 10 - - - -
02/01:52am 6.5 WSW 16 26 1010.8 - 8.6 - Partly cloudy 10 - - - -
02/01:43am 6.2 WSW 16 23 1010.8 - 8.6 - Partly cloudy 10 - - - -
02/01:39am 6.2 WSW 19 29 1010.8 - 8.6 - Partly cloudy 10 - - - -
02/01:30am 6.4 W 26 43 1010.9 - 8.6 - Partly cloudy 3 - - - -
02/01:28am 6.2 W 27 43 1011.0 - 8.6 - Partly cloudy 3 - - - -
02/01:22am 6.5 WSW 26 43 1011.0 - 8.4 - Partly cloudy 5 - - - -
02/01:21am 7.1 WSW 24 43 1010.8 - 8.2 - Partly cloudy 8 - - - -
02/01:00am 8.5 WSW 19 31 1010.6 - 8.0 - Partly cloudy 10 - - - -
02/12:31am 9.0 W 21 31 1010.4 - 8.0 - Partly cloudy 10 - - - -
02/12:30am 9.1 W 22 31 1010.4 - 8.0 - Partly cloudy 10 - - - -
02/12:21am 9.0 WSW 20 30 1010.5 - 8.0 - Partly cloudy 10 - - - -
02/12:00am 9.1 W 21 30 1010.4 - 8.0 - Partly cloudy 10 - - - -
 
Date/Time
EST
Temp

°C
Wind Pressure Rain
since 9am
mm
Weather Cloud Vis
km
Sea
Height
m
Swell
Dir
 
Speed
knots
Gust
knots
hPa Trend Height
m
Period
s
Dir
01/11:33pm 9.1 W 20 30 1010.6 - 8.0 - Partly cloudy 10 - - - -
01/11:30pm 9.3 W 21 30 1010.5 - 8.0 - Partly cloudy 10 - - - -
01/11:00pm 9.5 W 23 33 1010.4 - 8.0 - Partly cloudy 10 - - - -
01/10:30pm 8.5 W 26 37 1010.4 - 8.0 - Partly cloudy 7 - - - -
01/10:08pm 9.8 W 22 32 1010.4 - 8.0 - Partly cloudy 10 - - - -
01/10:00pm 9.9 WNW 24 32 1010.4 - 8.0 - Partly cloudy 10 - - - -
01/09:39pm 10.2 W 24 35 1010.1 - 8.0 - Partly cloudy 10 - - - -
01/09:30pm 10.0 W 23 32 1009.9 - 8.0 - Partly cloudy 8 - - - -
01/09:20pm 10.1 WNW 19 29 1009.7 - 7.8 - Partly cloudy 10 - - - -
01/09:00pm 9.6 WNW 20 28 1009.8 - 7.8 Recent precip. Cloudy 9 - - - -
01/08:45pm 9.8 NW 15 30 1009.8 - 7.8 - Partly cloudy 6 - - - -
01/08:30pm 9.7 NW 14 21 1010.0 - 7.8 - Partly cloudy 8 - - - -
01/08:18pm 9.4 NW 14 19 1010.2 - 7.8 - Partly cloudy 8 - - - -
01/08:00pm 9.2 NW 13 19 1010.1 - 7.6 - Partly cloudy 7 - - - -
01/07:36pm 8.7 WNW 13 19 1010.1 - 7.6 - Partly cloudy 9 - - - -
01/07:31pm 8.6 WNW 14 18 1010.0 - 7.6 - Partly cloudy 8 - - - -
01/07:30pm 8.5 WNW 14 18 1010.0 - 7.6 - Partly cloudy 7 - - - -
01/07:00pm 7.1 WNW 19 35 1010.2 - 7.0 - Partly cloudy 2 - - - -
01/06:52pm 5.4 WNW 26 37 1010.2 - 6.8 - Partly cloudy 2 - - - -
01/06:47pm 10.4 NW 27 39 1010.2 - 4.4 - Partly cloudy 5 - - - -
01/06:30pm 11.5 NNW 28 40 1008.3 - 4.2 - Partly cloudy 3 - - - -
01/06:24pm 11.7 NNW 28 38 1008.4 - 3.8 - Partly cloudy 5 - - - -
01/06:15pm 11.8 NNW 27 39 1008.5 - 3.6 - Partly cloudy 7 - - - -
01/06:00pm 11.6 NNW 26 41 1008.7 - 3.4 Rain Cloudy 5 - - - -
01/05:56pm 11.7 NNW 27 39 1008.9 - 3.4 - Partly cloudy 5 - - - -
01/05:30pm 12.3 NNW 25 35 1009.9 - 3.2 - Partly cloudy 10 - - - -
01/05:00pm 12.3 NNW 25 36 1010.8 - 3.2 - Partly cloudy 10 - - - -
01/04:32pm 11.9 NNW 24 34 1011.6 - 3.2 - Partly cloudy 10 - - - -
01/04:30pm 11.9 NNW 24 32 1011.6 - 3.2 - Partly cloudy 10 - - - -
01/04:04pm 11.4 NNW 21 33 1012.2 - 3.2 - Partly cloudy 10 - - - -
01/04:00pm 11.4 NNW 22 29 1012.5 - 3.2 - Partly cloudy 8 - - - -
01/03:30pm 12.0 NNW 26 36 1012.8 - 3.2 - Partly cloudy 8 - - - -
01/03:08pm 12.3 NNW 25 35 1013.1 - 3.2 - Partly cloudy 10 - - - -
01/03:00pm 12.3 NNW 26 34 1013.3 - 3.2 - Cloudy 10 - - - -
01/02:30pm 12.5 NW 24 35 1014.0 - 3.2 - Partly cloudy 10 - - - -
01/02:28pm 12.4 NW 25 35 1014.0 - 3.2 - Partly cloudy 10 - - - -
01/02:00pm 12.2 NW 23 32 1014.6 - 3.2 - Partly cloudy 10 - - - -
01/01:30pm 12.0 NW 23 33 1015.1 - 3.2 - Partly cloudy 10 - - - -
01/01:17pm 11.6 NNW 18 29 1015.3 - 3.2 - Partly cloudy 10 - - - -
01/01:00pm 11.4 NNW 18 24 1015.9 - 3.2 - Cloudy 10 - - - -
01/12:38pm 11.1 NNW 20 29 1016.1 - 3.2 - Partly cloudy 10 - - - -
01/12:30pm 10.8 NNW 22 29 1016.3 - 3.2 - Partly cloudy 7 - - - -
01/12:16pm 10.7 NNW 21 34 1016.7 - 3.0 - Partly cloudy 5 - - - -
01/12:06pm 11.1 NNW 18 28 1017.1 - 2.6 - Partly cloudy 7 - - - -
01/12:00pm 11.1 NNW 19 25 1017.2 - 2.6 Rain Cloudy 8 - - - -
01/11:37am 11.0 NNW 20 30 1017.9 - 2.2 - Partly cloudy 10 - - - -
01/11:30am 11.0 NNW 20 26 1018.1 - 2.2 - Partly cloudy 10 - - - -
01/11:17am 10.9 NNW 20 30 1018.3 - 2.2 - Partly cloudy 9 - - - -
01/11:07am 10.8 NNW 19 27 1018.6 - 2.2 - Partly cloudy 10 - - - -
01/11:00am 10.7 NNW 20 29 1018.7 - 2.2 - Partly cloudy 8 - - - -
01/10:50am 10.5 NNW 15 25 1019.0 - 2.0 - Partly cloudy 3 - - - -
01/10:30am 10.0 N 12 16 1019.2 - 0.8 - Partly cloudy 5 - - - -
01/10:28am 10.0 N 11 16 1019.2 - 0.8 - Partly cloudy 5 - - - -
01/10:19am 10.1 N 12 15 1019.3 - 0.6 - Partly cloudy 7 - - - -
01/10:00am 10.1 NNW 13 20 1019.8 - 0.6 - Partly cloudy 4 - - - -
01/09:56am 10.1 NNW 12 20 1019.8 - 0.2 - Partly cloudy 5 - - - -
01/09:30am 9.8 N 10 14 1019.8 - 0.0 - Partly cloudy 10 - - - -
01/09:00am 9.4 N 8 12 1020.3 - 9.2 Rain Cloudy 8 - - - -
01/08:30am 9.3 NNE 8 13 1020.6 - 9.0 - Partly cloudy 10 - - - -
01/08:00am 9.1 N 7 9 1020.8 - 9.0 - Partly cloudy 10 - - - -
01/07:30am 9.4 NNW 11 17 1021.1 - 9.0 - Partly cloudy 10 - - - -
01/07:00am 8.9 N 9 12 1021.3 - 9.0 - Partly cloudy 10 - - - -
01/06:30am 8.6 N 9 13 1021.4 - 9.0 - Partly cloudy 10 - - - -
01/06:00am 9.2 N 11 14 1021.6 - 9.0 - Cloudy 9 - - - -
01/05:30am 9.7 N 8 11 1021.9 - 9.0 - Partly cloudy 7 - - - -
01/05:00am 10.2 NW 15 24 1022.2 - 9.0 - Partly cloudy 10 - - - -
01/04:30am 10.1 NW 13 19 1022.4 - 9.0 - Partly cloudy 10 - - - -
01/04:12am 9.9 NW 11 15 1022.5 - 9.0 - Partly cloudy 10 - - - -
01/04:00am 9.4 NW 16 26 1022.7 - 9.0 - Partly cloudy 4 - - - -
01/03:59am 9.3 NW 16 26 1022.7 - 9.0 - Partly cloudy 3 - - - -
01/03:41am 9.8 NW 17 24 1022.8 - 8.4 - Partly cloudy 5 - - - -
01/03:30am 10.2 NW 12 16 1022.8 - 7.8 - Partly cloudy 10 - - - -
01/03:08am 9.6 NW 11 22 1022.9 - 7.8 - Partly cloudy 10 - - - -
01/03:02am 9.3 N 7 9 1022.9 - 7.8 - Partly cloudy 10 - - - -
01/03:00am 9.3 N 7 10 1022.9 - 7.8 Recent precip. Cloudy 10 - - - -
01/02:32am 9.4 N 7 13 1023.3 - 5.0 - Partly cloudy 5 - - - -
01/02:30am 9.2 N 6 10 1023.3 - 4.6 - Partly cloudy 7 - - - -
01/02:17am 9.2 NNW 8 11 1023.3 - 4.6 - Partly cloudy 10 - - - -
01/02:01am 9.1 N 8 11 1023.3 - 4.6 - Partly cloudy 7 - - - -
01/02:00am 9.1 N 8 12 1023.3 - 4.6 - Partly cloudy 7 - - - -

Other Formats:

Comma delimited format used in spreadsheet applications
http://www.bom.gov.au/fwo/IDT60701/IDT60701.94956.axf

JavaScript Object Notation format (JSON) in row-major order
http://www.bom.gov.au/fwo/IDT60701/IDT60701.94956.json